Time;durP1;ratioP1;P1;durP2;ratioP2;P2;SDS_P1;SDS_P2;PMS_P1;PMS_P2;Temp;Humidity;BMP_temperature;BMP_pressure;BME280_temperature;BME280_humidity;BME280_pressure;Samples;Min_cycle;Max_cycle;Signal;HPM_P1;HPM_P2
2021/01/06 00:01:22;;;;;;;13.32;4.95;;;0.90;99.90;;;;;;5100179;28;20089;-62
2021/01/06 00:03:49;;;;;;;90.53;9.32;;;0.90;99.90;;;;;;5099479;28;20535;-62
2021/01/06 00:06:16;;;;;;;82.85;9.90;;;0.80;99.90;;;;;;5100108;28;20101;-61
2021/01/06 00:08:45;;;;;;;28.45;5.68;;;0.70;99.90;;;;;;5095693;28;20036;-61
2021/01/06 00:11:13;;;;;;;49.72;7.40;;;0.70;99.90;;;;;;5090384;28;20127;-62
2021/01/06 00:13:39;;;;;;;11.48;4.65;;;0.70;99.90;;;;;;5098347;28;20471;-62
2021/01/06 00:16:05;;;;;;;15.95;5.70;;;0.70;99.90;;;;;;5084299;28;20097;-62
2021/01/06 00:18:31;;;;;;;8.68;4.80;;;0.70;99.90;;;;;;5085799;28;20050;-62
2021/01/06 00:20:57;;;;;;;14.68;4.50;;;0.80;99.90;;;;;;5072234;28;20036;-61
2021/01/06 00:23:23;;;;;;;13.38;4.47;;;0.90;99.90;;;;;;5078660;28;20040;-62
2021/01/06 00:25:49;;;;;;;7.00;4.15;;;0.90;99.90;;;;;;5086602;28;20071;-63
2021/01/06 00:28:20;;;;;;;107.40;9.05;;;1.00;99.90;;;;;;5086128;28;20158;-63
2021/01/06 00:30:49;;;;;;;58.33;7.50;;;1.00;99.90;;;;;;5086259;28;20089;-63
2021/01/06 00:33:18;;;;;;;73.70;8.73;;;1.00;99.90;;;;;;5076882;28;20043;-63
2021/01/06 00:35:52;;;;;;;87.13;7.80;;;1.00;99.90;;;;;;5079312;28;20044;-62
2021/01/06 00:38:18;;;;;;;167.30;11.55;;;1.00;99.90;;;;;;5078811;28;20172;-63
2021/01/06 00:40:45;;;;;;;205.07;13.80;;;1.00;99.90;;;;;;5077600;28;20070;-63
2021/01/06 00:43:12;;;;;;;78.95;8.55;;;1.00;99.90;;;;;;5084980;28;20100;-63
2021/01/06 00:45:37;;;;;;;187.55;11.27;;;0.90;99.90;;;;;;5087071;28;20052;-63
2021/01/06 00:48:04;;;;;;;175.20;10.05;;;0.90;99.90;;;;;;5087354;28;20102;-63
2021/01/06 00:50:30;;;;;;;63.75;7.00;;;0.80;99.90;;;;;;5087106;28;20052;-63
2021/01/06 00:53:23;;;;;;;165.38;9.63;;;0.90;99.90;;;;;;5077310;28;20131;-63
2021/01/06 00:55:53;;;;;;;265.48;15.10;;;0.90;99.90;;;;;;5066141;28;20098;-63
2021/01/06 00:58:20;;;;;;;90.10;7.07;;;0.80;99.90;;;;;;5066659;28;20044;-63
2021/01/06 01:00:46;;;;;;;115.80;8.43;;;0.90;99.90;;;;;;5071199;28;20039;-63
2021/01/06 01:03:12;;;;;;;126.30;8.20;;;0.90;99.90;;;;;;5085577;28;20090;-62
2021/01/06 01:05:38;;;;;;;353.13;18.38;;;0.90;99.90;;;;;;5086608;28;20123;-63
2021/01/06 01:08:06;;;;;;;231.77;12.30;;;0.90;99.90;;;;;;5086204;28;20530;-62
2021/01/06 01:10:40;;;;;;;299.67;14.55;;;0.90;99.90;;;;;;5076861;28;20789;-62
2021/01/06 01:13:13;;;;;;;615.42;29.15;;;1.00;99.90;;;;;;5078324;28;20043;-63
2021/01/06 01:15:42;;;;;;;419.88;24.50;;;0.80;99.90;;;;;;5077688;28;20123;-63
2021/01/06 01:18:11;;;;;;;194.90;11.00;;;0.80;99.90;;;;;;5085988;28;20044;-63
2021/01/06 01:20:42;;;;;;;76.75;5.88;;;0.80;99.90;;;;;;5085819;28;20036;-62
2021/01/06 01:23:08;;;;;;;79.80;5.15;;;0.90;99.90;;;;;;5074069;28;20072;-62
2021/01/06 01:25:33;;;;;;;77.15;5.43;;;0.90;99.90;;;;;;5065025;28;20148;-62
2021/01/06 01:27:59;;;;;;;39.25;3.63;;;0.90;99.90;;;;;;5065035;28;20111;-62
2021/01/06 01:30:26;;;;;;;51.83;4.88;;;0.90;99.90;;;;;;5064906;28;20123;-62
2021/01/06 01:32:52;;;;;;;35.28;4.05;;;0.90;99.90;;;;;;5065864;28;20070;-63
2021/01/06 01:35:28;;;;;;;22.42;3.60;;;0.90;99.90;;;;;;5066117;28;20496;-63
2021/01/06 01:37:55;;;;;;;22.70;3.53;;;1.00;99.90;;;;;;5075099;28;20036;-63
2021/01/06 01:40:39;;;;;;;40.55;3.53;;;1.00;99.90;;;;;;5077486;28;20043;-63
2021/01/06 01:43:19;;;;;;;72.13;6.00;;;1.00;99.90;;;;;;5086018;28;20044;-63
2021/01/06 01:45:45;;;;;;;83.93;5.95;;;0.90;99.90;;;;;;5085924;28;20127;-63
2021/01/06 01:48:32;;;;;;;92.70;5.85;;;0.80;99.90;;;;;;5086411;28;20146;-62
2021/01/06 01:51:07;;;;;;;27.88;4.40;;;0.80;99.90;;;;;;5086635;28;20040;-63
2021/01/06 01:54:01;;;;;;;53.13;5.95;;;0.80;99.90;;;;;;5085007;28;20058;-62
2021/01/06 01:56:50;;;;;;;42.92;5.43;;;0.80;99.90;;;;;;5084011;28;20461;-62
2021/01/06 01:59:27;;;;;;;65.63;7.90;;;0.90;99.90;;;;;;5084447;28;20132;-63
2021/01/06 02:01:56;;;;;;;163.90;9.43;;;0.90;99.90;;;;;;5084355;28;20040;-63
2021/01/06 02:04:35;;;;;;;144.70;7.05;;;0.90;99.90;;;;;;5085466;28;20059;-62
2021/01/06 02:07:16;;;;;;;48.38;4.65;;;0.90;99.90;;;;;;5084917;28;20814;-63
2021/01/06 02:09:51;;;;;;;159.70;8.57;;;0.90;99.90;;;;;;5076452;28;20036;-62
2021/01/06 02:12:23;;;;;;;93.07;5.65;;;0.90;99.90;;;;;;5084218;28;20760;-63
2021/01/06 02:14:59;;;;;;;160.50;8.63;;;1.00;99.90;;;;;;5084785;28;20040;-63
2021/01/06 02:17:24;;;;;;;126.97;6.82;;;1.00;99.90;;;;;;5084492;28;20043;-62
2021/01/06 02:19:50;;;;;;;72.88;5.35;;;1.00;99.90;;;;;;5084306;28;20051;-63
2021/01/06 02:22:19;;;;;;;493.60;20.15;;;1.00;99.90;;;;;;5084535;28;20035;-62
2021/01/06 02:24:48;;;;;;;358.33;18.05;;;1.10;99.90;;;;;;5084162;28;20104;-63
2021/01/06 02:27:14;;;;;;;236.98;9.90;;;1.10;99.90;;;;;;5084873;28;20480;-63
2021/01/06 02:29:40;;;;;;;368.30;17.35;;;1.00;99.90;;;;;;5084560;28;20043;-63
2021/01/06 02:32:07;;;;;;;259.60;12.25;;;1.10;99.90;;;;;;5083974;28;20036;-63
2021/01/06 02:34:35;;;;;;;78.95;5.60;;;1.00;99.90;;;;;;5083093;28;20429;-63
2021/01/06 02:37:01;;;;;;;126.43;6.57;;;1.10;99.90;;;;;;5067922;28;20039;-63
2021/01/06 02:39:26;;;;;;;387.25;18.25;;;1.10;99.90;;;;;;5070929;28;20403;-62
2021/01/06 02:41:52;;;;;;;376.67;18.13;;;1.00;99.90;;;;;;5084826;28;20085;-62
2021/01/06 02:44:18;;;;;;;561.80;29.02;;;1.00;99.90;;;;;;5068892;28;20055;-62
2021/01/06 02:46:44;;;;;;;446.35;20.98;;;0.90;99.90;;;;;;5064189;28;20045;-62
2021/01/06 02:49:11;;;;;;;418.85;19.05;;;0.80;99.90;;;;;;5080996;28;20044;-62
2021/01/06 02:51:54;;;;;;;510.17;23.70;;;0.80;99.90;;;;;;5084704;28;20547;-62
2021/01/06 02:54:27;;;;;;;258.25;13.70;;;0.90;99.90;;;;;;5071738;28;20041;-63
2021/01/06 02:56:57;;;;;;;473.90;22.67;;;0.90;99.90;;;;;;5064433;28;20043;-62
2021/01/06 02:59:27;;;;;;;374.83;19.63;;;0.90;99.90;;;;;;5064889;28;20044;-63
2021/01/06 03:01:54;;;;;;;349.50;18.05;;;0.90;99.90;;;;;;5077391;28;20040;-62
2021/01/06 03:04:20;;;;;;;528.25;28.73;;;0.90;99.90;;;;;;5083658;28;20059;-63
2021/01/06 03:07:03;;;;;;;165.00;15.25;;;0.90;99.90;;;;;;5082053;28;20123;-63
2021/01/06 03:09:38;;;;;;;244.73;14.13;;;0.80;99.90;;;;;;5075303;28;20389;-63
2021/01/06 03:12:16;;;;;;;211.30;13.40;;;0.90;99.90;;;;;;5080660;28;20041;-62
2021/01/06 03:14:43;;;;;;;155.52;10.98;;;0.90;99.90;;;;;;5067232;28;20047;-62
2021/01/06 03:17:11;;;;;;;35.40;6.43;;;0.90;99.90;;;;;;5080082;28;20044;-62
2021/01/06 03:19:43;;;;;;;95.68;9.77;;;0.90;99.90;;;;;;5083421;28;20047;-62
2021/01/06 03:22:11;;;;;;;77.28;9.95;;;0.90;99.90;;;;;;5064824;28;20049;-62
2021/01/06 03:24:44;;;;;;;59.05;8.82;;;0.90;99.90;;;;;;5068968;28;20048;-63
2021/01/06 03:27:11;;;;;;;159.25;15.27;;;0.90;99.90;;;;;;5084368;28;20036;-63
2021/01/06 03:29:38;;;;;;;25.58;7.57;;;0.80;99.90;;;;;;5083164;28;20075;-63
2021/01/06 03:32:10;;;;;;;98.55;13.15;;;0.80;99.90;;;;;;5084562;28;20450;-62
2021/01/06 03:34:47;;;;;;;42.03;8.93;;;0.80;99.90;;;;;;5083438;28;20040;-63
2021/01/06 03:37:26;;;;;;;20.35;7.68;;;0.90;99.90;;;;;;5077852;28;20039;-63
2021/01/06 03:40:06;;;;;;;23.23;7.68;;;0.90;99.90;;;;;;5083025;28;20032;-62
2021/01/06 03:42:31;;;;;;;23.63;7.63;;;0.90;99.90;;;;;;5083576;28;20036;-62
2021/01/06 03:44:57;;;;;;;42.92;8.73;;;1.00;99.90;;;;;;5083369;28;20081;-63
2021/01/06 03:47:27;;;;;;;26.33;8.40;;;0.90;99.90;;;;;;5084066;28;20043;-62
2021/01/06 03:50:18;;;;;;;23.63;7.85;;;0.90;99.90;;;;;;5084525;28;20039;-63
2021/01/06 03:53:08;;;;;;;33.30;7.97;;;0.90;99.90;;;;;;5086759;28;20550;-62
2021/01/06 03:55:49;;;;;;;21.15;7.57;;;0.90;99.90;;;;;;5087239;28;20044;-62
2021/01/06 03:58:32;;;;;;;35.17;8.40;;;0.90;99.90;;;;;;5087756;28;20089;-62
2021/01/06 04:01:41;;;;;;;41.10;9.23;;;0.90;99.90;;;;;;5085026;28;20476;-63
2021/01/06 04:04:37;;;;;;;34.30;7.30;;;0.90;99.90;;;;;;5077239;28;20359;-63
2021/01/06 04:07:05;;;;;;;17.73;6.80;;;0.80;99.90;;;;;;5075705;28;20045;-64
2021/01/06 04:09:39;;;;;;;20.40;6.85;;;0.90;99.90;;;;;;5070433;28;20048;-63
2021/01/06 04:12:10;;;;;;;27.85;6.97;;;0.90;99.90;;;;;;5084406;28;20036;-63
2021/01/06 04:14:36;;;;;;;22.38;6.13;;;0.90;99.90;;;;;;5068111;28;20045;-63
2021/01/06 04:17:16;;;;;;;18.52;6.13;;;1.00;99.90;;;;;;5083039;28;20146;-63
2021/01/06 04:19:49;;;;;;;14.48;5.85;;;1.00;99.90;;;;;;5081290;28;20043;-63
2021/01/06 04:22:15;;;;;;;10.15;5.40;;;1.00;99.90;;;;;;5067928;28;20048;-63
2021/01/06 04:24:41;;;;;;;9.75;5.55;;;1.00;99.90;;;;;;5067317;28;20504;-62
2021/01/06 04:27:07;;;;;;;11.32;5.63;;;1.00;99.90;;;;;;5083524;28;20040;-63
2021/01/06 04:29:33;;;;;;;12.18;6.35;;;0.90;99.90;;;;;;5087639;28;20089;-63
2021/01/06 04:31:58;;;;;;;11.95;6.10;;;0.90;99.90;;;;;;5087419;28;20040;-63
2021/01/06 04:34:24;;;;;;;12.65;5.35;;;0.90;99.90;;;;;;5081359;28;20036;-63
2021/01/06 04:36:49;;;;;;;11.32;5.68;;;0.90;99.90;;;;;;5071179;28;20039;-63
2021/01/06 04:39:15;;;;;;;12.13;6.25;;;0.90;99.90;;;;;;5067917;28;20048;-62
2021/01/06 04:41:56;;;;;;;21.08;6.43;;;0.90;99.90;;;;;;5088073;28;20036;-63
2021/01/06 04:44:45;;;;;;;15.00;7.25;;;0.90;99.90;;;;;;5087321;28;20081;-63
2021/01/06 04:47:41;;;;;;;19.05;6.97;;;0.90;99.90;;;;;;5085444;28;20044;-63
2021/01/06 04:50:31;;;;;;;19.38;7.93;;;0.90;99.90;;;;;;5079752;28;20044;-63
2021/01/06 04:53:15;;;;;;;43.13;9.45;;;0.90;99.90;;;;;;5087606;28;20042;-63
2021/01/06 04:56:15;;;;;;;19.40;7.30;;;0.80;99.90;;;;;;5083976;28;20048;-63
2021/01/06 04:59:03;;;;;;;15.00;7.88;;;0.80;99.90;;;;;;5079146;28;20040;-63
2021/01/06 05:01:40;;;;;;;29.08;8.98;;;0.80;99.90;;;;;;5086162;28;20082;-63
2021/01/06 05:04:08;;;;;;;;;;;0.80;99.90;;;;;;5084856;28;20188;-63
2021/01/06 05:06:54;;;;;;;24.50;8.18;;;0.80;99.90;;;;;;5086471;28;19922;-63
2021/01/06 05:09:24;;;;;;;29.35;9.02;;;0.80;99.90;;;;;;5077410;28;20178;-63
2021/01/06 05:11:59;;;;;;;21.20;7.97;;;0.80;99.90;;;;;;5086447;28;20032;-63
2021/01/06 05:14:32;;;;;;;19.70;8.35;;;0.80;99.90;;;;;;5086114;28;20040;-63
2021/01/06 05:16:58;;;;;;;20.95;7.97;;;0.90;99.90;;;;;;5081852;28;20051;-63
2021/01/06 05:19:30;;;;;;;25.92;9.00;;;0.90;99.90;;;;;;5084819;28;20064;-63
2021/01/06 05:21:57;;;;;;;17.73;8.13;;;0.90;99.90;;;;;;5086418;28;20054;-63
2021/01/06 05:24:39;;;;;;;14.43;7.97;;;0.90;99.90;;;;;;5085750;28;20588;-63
2021/01/06 05:27:14;;;;;;;17.20;7.43;;;1.00;99.90;;;;;;5086267;28;20127;-63
2021/01/06 05:29:57;;;;;;;14.40;7.70;;;1.00;99.90;;;;;;5085127;28;20048;-63
2021/01/06 05:32:33;;;;;;;13.77;7.88;;;1.00;99.90;;;;;;5076793;28;20040;-63
2021/01/06 05:35:07;;;;;;;12.88;7.13;;;0.90;99.90;;;;;;5065520;28;20045;-61
2021/01/06 05:37:33;;;;;;;15.45;7.38;;;0.90;99.90;;;;;;5080319;28;20047;-62
2021/01/06 05:40:11;;;;;;;13.95;7.68;;;0.90;99.90;;;;;;5077157;28;20036;-62
2021/01/06 05:42:58;;;;;;;12.90;7.00;;;0.90;99.90;;;;;;5078028;28;20044;-61
2021/01/06 05:45:35;;;;;;;13.93;7.00;;;0.90;99.90;;;;;;5085644;28;20032;-62
2021/01/06 05:48:15;;;;;;;11.95;6.68;;;0.90;99.90;;;;;;5083409;28;20058;-61
2021/01/06 05:50:41;;;;;;;12.48;7.05;;;1.00;99.90;;;;;;5086226;28;20040;-62
2021/01/06 05:53:46;;;;;;;10.57;6.63;;;1.00;99.90;;;;;;5084640;28;20048;-62
2021/01/06 05:56:34;;;;;;;13.15;6.45;;;1.10;99.90;;;;;;5085493;28;20093;-61
2021/01/06 05:59:35;;;;;;;12.20;6.60;;;1.10;99.90;;;;;;5084159;28;20059;-62
2021/01/06 06:02:22;;;;;;;16.00;6.78;;;1.00;99.90;;;;;;5083628;28;20119;-62
2021/01/06 06:05:18;;;;;;;10.82;6.13;;;1.10;99.90;;;;;;5084834;28;20044;-61
2021/01/06 06:08:15;;;;;;;11.40;6.35;;;1.10;99.90;;;;;;5078279;28;20511;-62
2021/01/06 06:11:13;;;;;;;14.45;7.35;;;1.10;99.90;;;;;;5077441;28;20036;-63
2021/01/06 06:14:10;;;;;;;12.90;6.80;;;0.90;99.90;;;;;;5064596;28;20466;-61
2021/01/06 06:16:41;;;;;;;12.02;6.95;;;0.80;99.90;;;;;;5068721;28;20047;-60
2021/01/06 06:19:38;;;;;;;13.27;7.28;;;0.90;99.90;;;;;;5081682;28;20065;-61
2021/01/06 06:22:24;;;;;;;12.20;7.28;;;0.90;99.90;;;;;;5044971;28;20610;-62
2021/01/06 06:25:09;;;;;;;15.33;7.47;;;1.00;99.90;;;;;;5065259;28;20132;-61
2021/01/06 06:28:10;;;;;;;13.23;7.47;;;1.00;99.90;;;;;;5065801;28;20082;-62
2021/01/06 06:30:38;;;;;;;12.52;7.72;;;0.90;99.90;;;;;;5066208;28;20044;-62
2021/01/06 06:33:17;;;;;;;12.70;7.15;;;0.90;99.90;;;;;;5065544;28;20044;-58
2021/01/06 06:35:49;;;;;;;11.15;6.53;;;1.00;99.90;;;;;;5065906;28;20044;-61
2021/01/06 06:38:16;;;;;;;11.25;6.80;;;0.90;99.90;;;;;;5070073;28;20115;-60
2021/01/06 06:41:03;;;;;;;12.40;7.30;;;1.00;99.90;;;;;;5073357;28;20693;-60
2021/01/06 06:43:46;;;;;;;10.85;6.78;;;1.00;99.90;;;;;;5085455;28;20052;-59
2021/01/06 06:46:23;;;;;;;12.75;7.78;;;1.00;99.90;;;;;;5084191;28;20565;-57
2021/01/06 06:49:10;;;;;;;15.63;8.82;;;0.90;99.90;;;;;;5084499;28;20557;-60
2021/01/06 06:51:58;;;;;;;11.98;7.32;;;0.80;99.90;;;;;;5070341;28;20036;-58
2021/01/06 06:54:30;;;;;;;13.43;7.78;;;0.90;99.90;;;;;;5073964;28;20052;-55
2021/01/06 06:57:00;;;;;;;12.60;7.43;;;0.90;99.90;;;;;;5085453;28;20048;-61
2021/01/06 06:59:55;;;;;;;12.48;7.07;;;1.00;99.90;;;;;;5075147;28;20047;-61
2021/01/06 07:02:21;;;;;;;11.15;6.53;;;1.00;99.90;;;;;;5064573;28;20040;-60
2021/01/06 07:04:58;;;;;;;10.07;6.43;;;0.90;99.90;;;;;;5067650;28;20098;-60
2021/01/06 07:07:35;;;;;;;12.88;6.82;;;0.90;99.90;;;;;;5084170;28;20040;-61
2021/01/06 07:10:05;;;;;;;9.13;5.45;;;0.90;99.90;;;;;;5075913;28;20040;-61
2021/01/06 07:12:37;;;;;;;7.57;4.82;;;0.90;99.90;;;;;;5079666;28;20043;-61
2021/01/06 07:15:03;;;;;;;8.68;5.45;;;0.90;99.90;;;;;;5084270;28;20032;-60
2021/01/06 07:17:37;;;;;;;7.78;5.03;;;0.90;99.90;;;;;;5064887;28;20040;-66
2021/01/06 07:20:12;;;;;;;7.60;4.40;;;0.90;99.90;;;;;;5065433;28;20059;-67
2021/01/06 07:22:42;;;;;;;7.10;4.25;;;1.00;99.90;;;;;;5075481;28;20040;-64
2021/01/06 07:25:28;;;;;;;7.32;4.60;;;0.90;99.90;;;;;;5077647;28;20051;-66
2021/01/06 07:28:01;;;;;;;6.75;4.18;;;1.00;99.90;;;;;;5087813;28;20043;-62
2021/01/06 07:30:43;;;;;;;6.10;4.05;;;1.00;99.90;;;;;;5087043;28;20044;-62
2021/01/06 07:33:25;;;;;;;7.18;4.22;;;0.90;99.90;;;;;;5087480;28;20052;-62
2021/01/06 07:35:51;;;;;;;6.88;3.97;;;0.80;99.90;;;;;;5079975;28;20045;-62
2021/01/06 07:38:19;;;;;;;6.45;4.18;;;0.90;99.90;;;;;;5076233;28;20045;-63
2021/01/06 07:40:55;;;;;;;5.43;2.75;;;0.90;99.90;;;;;;5082029;28;20524;-62
2021/01/06 07:43:26;;;;;;;5.57;3.08;;;1.00;99.90;;;;;;5082451;28;20040;-62
2021/01/06 07:45:58;;;;;;;5.72;3.25;;;1.00;99.90;;;;;;5087537;28;20097;-62
2021/01/06 07:48:42;;;;;;;4.90;2.97;;;0.90;99.90;;;;;;5088633;28;20043;-63
2021/01/06 07:51:45;;;;;;;4.70;2.30;;;0.90;99.90;;;;;;5088937;28;20043;-63
2021/01/06 07:54:11;;;;;;;4.38;2.70;;;0.90;99.90;;;;;;5087797;28;20040;-63
2021/01/06 07:56:42;;;;;;;4.78;2.85;;;0.90;99.90;;;;;;5088542;28;20044;-63
2021/01/06 07:59:43;;;;;;;4.60;2.72;;;0.90;99.90;;;;;;5088157;28;20088;-60
2021/01/06 08:02:12;;;;;;;4.47;2.83;;;1.00;99.90;;;;;;5087123;28;20094;-61
2021/01/06 08:05:00;;;;;;;5.78;2.45;;;0.90;99.90;;;;;;5088475;28;20047;-61
2021/01/06 08:07:26;;;;;;;4.93;2.90;;;0.90;99.90;;;;;;5087923;28;20093;-62
2021/01/06 08:09:53;;;;;;;3.60;2.45;;;1.00;99.90;;;;;;5073637;28;20048;-63
2021/01/06 08:12:40;;;;;;;4.72;2.95;;;0.90;99.90;;;;;;5085931;28;20067;-63
2021/01/06 08:15:19;;;;;;;4.55;2.55;;;0.90;99.90;;;;;;5066869;28;20036;-62
2021/01/06 08:18:02;;;;;;;3.53;2.35;;;1.00;99.90;;;;;;5079945;28;20412;-62
2021/01/06 08:20:37;;;;;;;4.05;2.45;;;1.00;99.90;;;;;;5087479;28;20040;-62
2021/01/06 08:23:16;;;;;;;4.55;3.17;;;1.10;99.90;;;;;;5074966;28;20047;-63
2021/01/06 08:26:12;;;;;;;5.13;2.90;;;1.20;99.90;;;;;;5067691;28;20052;-62
2021/01/06 08:28:37;;;;;;;4.33;2.80;;;1.20;99.90;;;;;;5065824;28;20174;-63
2021/01/06 08:31:15;;;;;;;3.83;2.40;;;1.20;99.90;;;;;;5066568;28;20087;-63
2021/01/06 08:33:58;;;;;;;3.30;2.30;;;1.20;99.90;;;;;;5066074;28;20048;-64
2021/01/06 08:36:29;;;;;;;4.38;2.65;;;1.30;99.90;;;;;;5078192;28;20119;-63
2021/01/06 08:39:06;;;;;;;4.25;2.50;;;1.30;99.90;;;;;;5069578;28;20147;-63
2021/01/06 08:41:32;;;;;;;28.80;10.25;;;1.30;99.90;;;;;;5069671;23;20044;-63
2021/01/06 08:44:00;;;;;;;106.30;29.10;;;1.30;99.90;;;;;;5056023;28;20060;-63
2021/01/06 08:46:30;;;;;;;81.05;24.85;;;1.40;99.90;;;;;;5046768;28;20128;-63
2021/01/06 08:49:24;;;;;;;26.40;8.80;;;1.40;99.90;;;;;;5045985;28;20045;-62
2021/01/06 08:51:53;;;;;;;33.92;10.88;;;1.40;99.90;;;;;;5028757;28;20045;-63
2021/01/06 08:54:31;;;;;;;23.40;7.90;;;1.40;99.90;;;;;;5046821;28;20151;-63
2021/01/06 08:57:05;;;;;;;19.15;6.80;;;1.40;99.90;;;;;;5028827;28;20059;-62
2021/01/06 08:59:36;;;;;;;10.43;4.88;;;1.40;99.90;;;;;;5038469;28;20105;-63
2021/01/06 09:02:03;;;;;;;5.95;3.00;;;1.50;99.90;;;;;;5046647;28;20045;-63
2021/01/06 09:04:41;;;;;;;4.32;2.40;;;1.50;99.90;;;;;;5045492;28;20102;-63
2021/01/06 09:07:21;;;;;;;3.75;2.40;;;1.50;99.90;;;;;;5055432;23;20055;-64
2021/01/06 09:10:16;;;;;;;3.50;2.03;;;1.50;99.90;;;;;;5073222;22;20041;-64
2021/01/06 09:13:03;;;;;;;2.42;1.50;;;1.60;99.90;;;;;;5067183;28;20666;-63
2021/01/06 09:15:42;;;;;;;3.17;1.65;;;1.50;99.90;;;;;;5068696;28;20044;-59
2021/01/06 09:18:17;;;;;;;3.22;2.13;;;1.40;99.90;;;;;;5086234;28;20040;-62
2021/01/06 09:20:55;;;;;;;4.22;2.25;;;1.10;99.90;;;;;;5086638;28;20054;-66
2021/01/06 09:23:21;;;;;;;2.90;2.08;;;1.20;99.90;;;;;;5087223;28;20598;-63
2021/01/06 09:25:47;;;;;;;11.48;2.67;;;1.30;99.90;;;;;;5083967;28;20115;-66
2021/01/06 09:28:15;;;;;;;19.70;3.25;;;1.30;99.90;;;;;;5086954;28;20028;-65
2021/01/06 09:30:43;;;;;;;35.50;4.30;;;1.30;99.90;;;;;;5075822;28;20036;-63
2021/01/06 09:33:27;;;;;;;19.58;3.88;;;1.20;99.90;;;;;;5065469;28;20137;-56
2021/01/06 09:35:53;;;;;;;8.27;3.78;;;1.30;99.90;;;;;;5056263;28;20040;-63
2021/01/06 09:38:34;;;;;;;22.55;3.83;;;1.30;99.90;;;;;;5084357;28;20677;-64
2021/01/06 09:41:06;;;;;;;5.97;3.72;;;1.20;99.90;;;;;;5082402;28;20446;-62
2021/01/06 09:43:35;;;;;;;7.45;4.32;;;1.20;99.90;;;;;;5086157;28;20638;-66
2021/01/06 09:46:01;;;;;;;8.82;5.25;;;1.30;99.90;;;;;;5081886;28;20120;-64
2021/01/06 09:48:27;;;;;;;13.65;4.88;;;1.20;99.90;;;;;;5063486;28;20044;-64
2021/01/06 09:50:59;;;;;;;131.13;9.90;;;1.10;99.90;;;;;;5079082;28;20047;-60
2021/01/06 09:53:27;;;;;;;65.88;6.70;;;1.10;99.90;;;;;;5086376;28;20127;-63
2021/01/06 09:55:55;;;;;;;178.38;10.35;;;0.90;99.90;;;;;;5085346;28;20035;-57
2021/01/06 09:58:33;;;;;;;165.85;9.45;;;0.90;99.90;;;;;;5084902;28;20052;-60
2021/01/06 10:01:19;;;;;;;288.73;13.52;;;0.80;99.90;;;;;;5085702;28;20868;-61
2021/01/06 10:03:49;;;;;;;203.68;10.30;;;0.80;99.90;;;;;;5086742;28;20044;-60
2021/01/06 10:06:35;;;;;;;203.57;12.25;;;0.80;99.90;;;;;;5074566;28;20120;-62
2021/01/06 10:09:07;;;;;;;395.38;17.52;;;0.80;99.90;;;;;;5070604;28;20071;-63
2021/01/06 10:12:04;;;;;;;386.25;17.02;;;0.80;99.90;;;;;;5076001;28;20040;-62
2021/01/06 10:14:54;;;;;;;464.90;20.50;;;0.70;99.90;;;;;;5065474;28;20051;-61
2021/01/06 10:17:25;;;;;;;269.95;12.77;;;0.70;99.90;;;;;;5064756;28;20656;-62
2021/01/06 10:20:13;;;;;;;122.78;8.27;;;0.80;99.90;;;;;;5062972;28;20044;-61
2021/01/06 10:22:52;;;;;;;13.02;5.72;;;0.90;99.90;;;;;;5063898;28;20048;-61
2021/01/06 10:25:38;;;;;;;7.47;4.30;;;1.00;99.90;;;;;;5064514;28;20781;-61
2021/01/06 10:28:22;;;;;;;17.45;6.95;;;1.10;99.90;;;;;;5084451;28;20050;-62
2021/01/06 10:31:03;;;;;;;7.38;4.57;;;1.20;99.90;;;;;;5083658;28;20036;-61
2021/01/06 10:33:31;;;;;;;13.82;5.78;;;1.20;99.90;;;;;;5084234;28;20048;-62
2021/01/06 10:36:14;;;;;;;10.20;5.22;;;1.20;99.90;;;;;;5082632;28;20040;-61
2021/01/06 10:38:42;;;;;;;12.95;6.75;;;1.30;99.90;;;;;;5061221;28;20053;-62
2021/01/06 10:41:27;;;;;;;10.57;5.45;;;1.20;99.90;;;;;;5080826;28;20488;-61
2021/01/06 10:44:01;;;;;;;10.20;5.60;;;1.00;99.90;;;;;;5084299;28;20051;-62
2021/01/06 10:46:41;;;;;;;9.23;4.82;;;1.00;99.90;;;;;;5080075;28;20557;-62
2021/01/06 10:49:18;;;;;;;8.07;5.05;;;0.90;99.90;;;;;;5081728;28;20136;-63
2021/01/06 10:51:59;;;;;;;7.18;4.10;;;0.90;99.90;;;;;;5081100;28;20073;-62
2021/01/06 10:54:44;;;;;;;7.13;4.57;;;1.10;99.90;;;;;;5082464;28;20465;-61
2021/01/06 10:57:25;;;;;;;7.75;4.13;;;1.30;99.90;;;;;;5080315;28;20051;-62
2021/01/06 11:00:20;;;;;;;7.50;4.28;;;1.30;99.90;;;;;;5080524;28;20047;-62
2021/01/06 11:02:58;;;;;;;6.55;3.53;;;1.30;99.90;;;;;;5082185;28;20123;-62
2021/01/06 11:05:46;;;;;;;5.90;3.50;;;1.40;99.90;;;;;;5079318;28;20032;-60
2021/01/06 11:08:27;;;;;;;4.63;3.05;;;1.50;99.90;;;;;;5065678;28;20177;-62
2021/01/06 11:11:15;;;;;;;7.72;2.53;;;1.60;99.90;;;;;;5082547;28;20040;-62
2021/01/06 11:14:11;;;;;;;4.20;2.70;;;1.70;99.90;;;;;;5078125;28;20085;-62
2021/01/06 11:16:49;;;;;;;4.38;2.88;;;1.70;99.90;;;;;;5075805;28;20071;-62
2021/01/06 11:19:35;;;;;;;4.68;3.03;;;1.70;99.90;;;;;;5065244;28;20041;-62
2021/01/06 11:22:17;;;;;;;6.22;3.50;;;1.70;99.90;;;;;;5063725;28;20111;-62
2021/01/06 11:24:53;;;;;;;3.55;2.45;;;1.70;99.90;;;;;;5080403;28;20051;-62
2021/01/06 11:27:41;;;;;;;4.70;3.10;;;1.80;99.90;;;;;;5081003;28;20115;-62
2021/01/06 11:30:13;;;;;;;5.25;3.30;;;1.80;99.90;;;;;;5079990;28;20037;-63
2021/01/06 11:32:40;;;;;;;6.93;4.18;;;1.80;99.90;;;;;;5068605;22;20044;-65
2021/01/06 11:35:19;;;;;;;10.48;5.55;;;1.70;99.90;;;;;;5061118;28;20037;-65
2021/01/06 11:37:45;;;;;;;10.70;5.20;;;1.60;99.90;;;;;;5026454;28;20060;-64
2021/01/06 11:40:26;;;;;;;10.73;6.03;;;1.40;99.90;;;;;;5043531;28;20827;-64
2021/01/06 11:43:18;;;;;;;9.85;5.72;;;1.40;99.90;;;;;;5020548;28;20051;-64
2021/01/06 11:45:51;;;;;;;12.90;6.47;;;1.40;99.90;;;;;;5043242;28;20144;-64
2021/01/06 11:50:49;;;;;;;12.45;6.10;;;1.30;99.90;;;;;;5035499;28;20535;-67
2021/01/06 11:53:27;;;;;;;12.80;5.82;;;1.30;99.90;;;;;;5027327;28;20049;-59
2021/01/06 11:55:59;;;;;;;12.82;7.07;;;1.30;99.90;;;;;;5029092;28;20129;-62
2021/01/06 11:58:35;;;;;;;11.50;6.15;;;1.20;99.90;;;;;;5037735;23;20048;-63
2021/01/06 12:01:07;;;;;;;11.50;6.30;;;1.30;99.90;;;;;;5035090;28;20477;-63
2021/01/06 12:03:57;;;;;;;11.45;6.63;;;1.30;99.90;;;;;;5044183;28;20049;-62
2021/01/06 12:07:13;;;;;;;24.23;13.73;;;1.30;99.90;;;;;;5011871;28;20112;-60
2021/01/06 12:09:51;;;;;;;14.77;8.90;;;1.40;99.90;;;;;;4961956;28;20156;-61
2021/01/06 12:12:31;;;;;;;13.95;7.85;;;1.50;99.90;;;;;;4949200;28;20039;-59
2021/01/06 12:15:03;;;;;;;11.88;6.75;;;1.60;99.90;;;;;;4995287;28;20425;-59
2021/01/06 12:17:38;;;;;;;9.02;5.97;;;1.70;99.90;;;;;;5022479;28;20564;-58
2021/01/06 12:20:04;;;;;;;27.05;15.57;;;1.80;99.90;;;;;;5026067;28;20060;-60
2021/01/06 12:22:30;;;;;;;38.55;20.90;;;1.70;99.90;;;;;;5027432;28;20091;-60
2021/01/06 12:24:58;;;;;;;11.52;6.53;;;1.70;99.90;;;;;;5027055;28;20832;-59
2021/01/06 12:27:35;;;;;;;8.30;4.75;;;1.60;99.90;;;;;;5015742;28;20064;-61
2021/01/06 12:30:03;;;;;;;6.38;4.15;;;1.60;99.90;;;;;;5022345;28;20037;-61
2021/01/06 12:33:02;;;;;;;5.22;3.35;;;1.50;99.90;;;;;;5026282;28;20056;-61
2021/01/06 12:35:34;;;;;;;5.65;3.47;;;1.60;99.90;;;;;;5026220;28;20594;-61
2021/01/06 12:38:20;;;;;;;5.55;3.53;;;1.50;99.90;;;;;;5009227;28;20095;-61
2021/01/06 12:41:01;;;;;;;5.95;3.67;;;1.50;99.90;;;;;;5018186;28;20065;-61
2021/01/06 12:43:50;;;;;;;6.60;4.00;;;1.40;99.90;;;;;;4998580;28;20069;-61
2021/01/06 12:46:32;;;;;;;12.50;7.25;;;1.40;99.90;;;;;;5003399;28;20049;-64
2021/01/06 12:49:10;;;;;;;12.98;7.90;;;1.50;99.90;;;;;;5020462;28;20401;-63
2021/01/06 12:51:40;;;;;;;18.77;9.85;;;1.50;99.90;;;;;;5015031;28;20713;-63
2021/01/06 12:54:20;;;;;;;8.48;4.78;;;1.60;99.90;;;;;;5027154;28;20048;-61
2021/01/06 12:57:04;;;;;;;7.93;5.15;;;1.60;99.90;;;;;;5027039;28;20048;-60
2021/01/06 12:59:30;;;;;;;9.05;5.68;;;1.40;99.90;;;;;;5026680;28;20060;-58
2021/01/06 13:01:59;;;;;;;35.80;21.35;;;1.50;99.90;;;;;;5019269;28;20076;-60
2021/01/06 13:04:38;;;;;;;42.85;25.45;;;1.60;99.90;;;;;;5016423;28;20774;-61
2021/01/06 13:07:13;;;;;;;11.23;7.03;;;1.60;99.90;;;;;;5009944;28;20046;-63
2021/01/06 13:09:54;;;;;;;24.95;15.63;;;1.50;99.90;;;;;;5018494;28;20033;-59
2021/01/06 13:12:35;;;;;;;12.35;7.72;;;1.50;99.90;;;;;;5013347;28;20061;-59
2021/01/06 13:15:06;;;;;;;9.35;5.43;;;1.50;99.90;;;;;;5006124;28;20708;-60
2021/01/06 13:17:38;;;;;;;8.18;5.43;;;1.40;99.90;;;;;;5007151;28;20095;-62
2021/01/06 13:20:10;;;;;;;7.70;5.38;;;1.50;99.90;;;;;;5018322;28;20045;-59
2021/01/06 13:22:49;;;;;;;13.55;8.02;;;1.40;99.90;;;;;;5016178;28;20048;-60
2021/01/06 13:25:27;;;;;;;28.75;17.27;;;1.40;99.90;;;;;;4997310;28;20042;-61
2021/01/06 13:27:52;;;;;;;27.88;16.77;;;1.40;99.90;;;;;;5023079;28;20033;-61
2021/01/06 13:30:44;;;;;;;13.38;8.10;;;1.30;99.90;;;;;;5016955;28;20056;-60
2021/01/06 13:33:15;;;;;;;12.88;7.32;;;1.40;99.90;;;;;;5024631;28;20053;-60